sensor_id;sensor_type;location;lat;lon;timestamp;pressure;altitude;pressure_sealevel;temperature;humidity
64853;BME280;56050;55.558;-4.644;2022-11-15T00:02:20;99660.16;;;12.62;69.25
64853;BME280;56050;55.558;-4.644;2022-11-15T00:04:46;99651.28;;;12.61;69.02
64853;BME280;56050;55.558;-4.644;2022-11-15T00:07:11;99647.06;;;12.60;69.11
64853;BME280;56050;55.558;-4.644;2022-11-15T00:09:37;99638.94;;;12.60;69.19
64853;BME280;56050;55.558;-4.644;2022-11-15T00:12:02;99633.22;;;12.58;69.13
64853;BME280;56050;55.558;-4.644;2022-11-15T00:14:28;99617.41;;;12.57;69.13
64853;BME280;56050;55.558;-4.644;2022-11-15T00:16:53;99620.13;;;12.57;69.16
64853;BME280;56050;55.558;-4.644;2022-11-15T00:19:18;99618.63;;;12.56;69.05
64853;BME280;56050;55.558;-4.644;2022-11-15T00:21:44;99612.03;;;12.57;69.12
64853;BME280;56050;55.558;-4.644;2022-11-15T00:24:09;99610.84;;;12.58;68.81
64853;BME280;56050;55.558;-4.644;2022-11-15T00:26:35;99608.16;;;12.58;68.74
64853;BME280;56050;55.558;-4.644;2022-11-15T00:29:00;99606.19;;;12.58;68.52
64853;BME280;56050;55.558;-4.644;2022-11-15T00:31:26;99604.25;;;12.59;68.54
64853;BME280;56050;55.558;-4.644;2022-11-15T00:33:51;99603.50;;;12.58;68.26
64853;BME280;56050;55.558;-4.644;2022-11-15T00:36:17;99607.72;;;12.59;68.00
64853;BME280;56050;55.558;-4.644;2022-11-15T00:38:42;99596.94;;;12.59;67.85
64853;BME280;56050;55.558;-4.644;2022-11-15T00:41:08;99587.63;;;12.60;67.66
64853;BME280;56050;55.558;-4.644;2022-11-15T00:43:33;99582.97;;;12.61;67.49
64853;BME280;56050;55.558;-4.644;2022-11-15T00:46:00;99582.22;;;12.60;67.42
64853;BME280;56050;55.558;-4.644;2022-11-15T00:48:25;99568.69;;;12.60;67.25
64853;BME280;56050;55.558;-4.644;2022-11-15T00:50:51;99572.94;;;12.61;66.89
64853;BME280;56050;55.558;-4.644;2022-11-15T00:53:16;99574.03;;;12.64;66.56
64853;BME280;56050;55.558;-4.644;2022-11-15T00:55:42;99565.47;;;12.65;66.26
64853;BME280;56050;55.558;-4.644;2022-11-15T00:58:08;99550.78;;;12.66;66.19
64853;BME280;56050;55.558;-4.644;2022-11-15T01:00:34;99543.00;;;12.68;66.30
64853;BME280;56050;55.558;-4.644;2022-11-15T01:03:02;99518.69;;;12.68;66.04
64853;BME280;56050;55.558;-4.644;2022-11-15T01:05:28;99535.22;;;12.70;66.21
64853;BME280;56050;55.558;-4.644;2022-11-15T01:07:54;99532.50;;;12.70;66.30
64853;BME280;56050;55.558;-4.644;2022-11-15T01:10:20;99525.63;;;12.69;66.25
64853;BME280;56050;55.558;-4.644;2022-11-15T01:12:46;99522.16;;;12.69;66.12
64853;BME280;56050;55.558;-4.644;2022-11-15T01:15:12;99515.66;;;12.66;66.00
64853;BME280;56050;55.558;-4.644;2022-11-15T01:17:37;99513.72;;;12.67;65.98
64853;BME280;56050;55.558;-4.644;2022-11-15T01:20:03;99526.47;;;12.66;65.84
64853;BME280;56050;55.558;-4.644;2022-11-15T01:22:29;99520.75;;;12.64;65.68
64853;BME280;56050;55.558;-4.644;2022-11-15T01:24:54;99519.53;;;12.65;65.72
64853;BME280;56050;55.558;-4.644;2022-11-15T01:27:20;99509.94;;;12.64;65.63
64853;BME280;56050;55.558;-4.644;2022-11-15T01:29:45;99511.13;;;12.63;65.66
64853;BME280;56050;55.558;-4.644;2022-11-15T01:32:10;99504.94;;;12.63;65.59
64853;BME280;56050;55.558;-4.644;2022-11-15T01:34:36;99491.03;;;12.64;65.65
64853;BME280;56050;55.558;-4.644;2022-11-15T01:37:01;99484.84;;;12.64;65.44
64853;BME280;56050;55.558;-4.644;2022-11-15T01:39:27;99480.22;;;12.64;65.24
64853;BME280;56050;55.558;-4.644;2022-11-15T01:41:52;99485.63;;;12.64;65.43
64853;BME280;56050;55.558;-4.644;2022-11-15T01:46:56;99471.66;;;12.66;65.12
64853;BME280;56050;55.558;-4.644;2022-11-15T01:49:23;99462.03;;;12.65;65.07
64853;BME280;56050;55.558;-4.644;2022-11-15T01:51:49;99457.41;;;12.65;64.73
64853;BME280;56050;55.558;-4.644;2022-11-15T01:54:17;99454.69;;;12.65;64.47
64853;BME280;56050;55.558;-4.644;2022-11-15T01:56:52;99453.50;;;12.66;64.48
64853;BME280;56050;55.558;-4.644;2022-11-15T01:59:19;99446.94;;;12.67;64.47
64853;BME280;56050;55.558;-4.644;2022-11-15T02:01:45;99441.84;;;12.69;64.65
64853;BME280;56050;55.558;-4.644;2022-11-15T02:06:36;99428.97;;;12.73;64.49
64853;BME280;56050;55.558;-4.644;2022-11-15T02:09:02;99423.16;;;12.75;64.55
64853;BME280;56050;55.558;-4.644;2022-11-15T02:11:28;99418.06;;;12.77;64.35
64853;BME280;56050;55.558;-4.644;2022-11-15T02:13:55;99414.94;;;12.78;64.56
64853;BME280;56050;55.558;-4.644;2022-11-15T02:16:35;99409.09;;;12.80;64.40
64853;BME280;56050;55.558;-4.644;2022-11-15T02:33:44;99357.31;;;12.81;63.09
64853;BME280;56050;55.558;-4.644;2022-11-15T02:36:21;99345.00;;;12.80;62.95
64853;BME280;56050;55.558;-4.644;2022-11-15T02:41:45;99338.84;;;12.80;62.04
64853;BME280;56050;55.558;-4.644;2022-11-15T02:44:35;99308.03;;;12.77;60.88
64853;BME280;56050;55.558;-4.644;2022-11-15T02:47:07;99303.81;;;12.76;60.32
64853;BME280;56050;55.558;-4.644;2022-11-15T02:49:43;99282.19;;;12.76;59.90
64853;BME280;56050;55.558;-4.644;2022-11-15T02:52:15;99286.53;;;12.74;59.20
64853;BME280;56050;55.558;-4.644;2022-11-15T02:54:41;99284.13;;;12.76;58.87
64853;BME280;56050;55.558;-4.644;2022-11-15T02:57:16;99266.44;;;12.75;58.33
64853;BME280;56050;55.558;-4.644;2022-11-15T02:59:52;99252.47;;;12.76;56.85
64853;BME280;56050;55.558;-4.644;2022-11-15T03:02:48;99261.34;;;12.77;56.60
64853;BME280;56050;55.558;-4.644;2022-11-15T03:05:41;99257.44;;;12.78;56.09
64853;BME280;56050;55.558;-4.644;2022-11-15T03:11:19;99245.00;;;12.80;55.64
64853;BME280;56050;55.558;-4.644;2022-11-15T03:14:21;99234.19;;;12.80;55.51
64853;BME280;56050;55.558;-4.644;2022-11-15T03:16:54;99236.44;;;12.82;55.27
64853;BME280;56050;55.558;-4.644;2022-11-15T03:19:32;99244.13;;;12.83;55.18
64853;BME280;56050;55.558;-4.644;2022-11-15T03:22:00;99232.56;;;12.83;55.17
64853;BME280;56050;55.558;-4.644;2022-11-15T03:24:30;99226.72;;;12.84;54.92
64853;BME280;56050;55.558;-4.644;2022-11-15T03:26:59;99227.94;;;12.83;55.26
64853;BME280;56050;55.558;-4.644;2022-11-15T03:29:31;99215.59;;;12.82;55.34
64853;BME280;56050;55.558;-4.644;2022-11-15T03:32:09;99237.66;;;12.81;55.18
64853;BME280;56050;55.558;-4.644;2022-11-15T03:34:51;99215.28;;;12.80;55.21
64853;BME280;56050;55.558;-4.644;2022-11-15T03:37:21;99233.00;;;12.81;54.88
64853;BME280;56050;55.558;-4.644;2022-11-15T03:39:47;99231.81;;;12.82;55.17
64853;BME280;56050;55.558;-4.644;2022-11-15T03:44:54;99241.09;;;12.81;55.34
64853;BME280;56050;55.558;-4.644;2022-11-15T03:47:29;99231.06;;;12.82;55.24
64853;BME280;56050;55.558;-4.644;2022-11-15T03:50:17;99239.91;;;12.82;55.34
64853;BME280;56050;55.558;-4.644;2022-11-15T03:52:48;99224.47;;;12.83;55.54
64853;BME280;56050;55.558;-4.644;2022-11-15T03:55:18;99227.16;;;12.83;55.63
64853;BME280;56050;55.558;-4.644;2022-11-15T03:57:44;99222.53;;;12.83;55.47
64853;BME280;56050;55.558;-4.644;2022-11-15T04:00:10;99215.59;;;12.82;55.84
64853;BME280;56050;55.558;-4.644;2022-11-15T04:02:36;99219.06;;;12.83;55.98
64853;BME280;56050;55.558;-4.644;2022-11-15T04:05:01;99216.34;;;12.83;55.82
64853;BME280;56050;55.558;-4.644;2022-11-15T04:07:27;99215.59;;;12.82;55.95
64853;BME280;56050;55.558;-4.644;2022-11-15T04:09:52;99211.38;;;12.81;56.11
64853;BME280;56050;55.558;-4.644;2022-11-15T04:12:35;99209.13;;;12.80;56.15
64853;BME280;56050;55.558;-4.644;2022-11-15T04:15:07;99203.81;;;12.76;56.31
64853;BME280;56050;55.558;-4.644;2022-11-15T04:17:47;99200.81;;;12.74;56.46
64853;BME280;56050;55.558;-4.644;2022-11-15T04:20:30;99184.28;;;12.72;56.57
64853;BME280;56050;55.558;-4.644;2022-11-15T04:23:15;99186.66;;;12.70;56.43
64853;BME280;56050;55.558;-4.644;2022-11-15T04:26:01;99177.47;;;12.68;56.64
64853;BME280;56050;55.558;-4.644;2022-11-15T04:28:27;99177.94;;;12.66;56.55
64853;BME280;56050;55.558;-4.644;2022-11-15T04:30:53;99169.50;;;12.64;56.50
64853;BME280;56050;55.558;-4.644;2022-11-15T04:33:18;99167.53;;;12.65;56.28
64853;BME280;56050;55.558;-4.644;2022-11-15T04:35:44;99170.69;;;12.63;56.51
64853;BME280;56050;55.558;-4.644;2022-11-15T04:38:29;99151.47;;;12.61;56.28
64853;BME280;56050;55.558;-4.644;2022-11-15T04:40:55;99137.66;;;12.59;56.25
64853;BME280;56050;55.558;-4.644;2022-11-15T04:43:20;99140.78;;;12.58;56.05
64853;BME280;56050;55.558;-4.644;2022-11-15T04:45:45;99151.16;;;12.59;55.92
64853;BME280;56050;55.558;-4.644;2022-11-15T04:48:11;99148.47;;;12.59;56.00
64853;BME280;56050;55.558;-4.644;2022-11-15T04:50:36;99145.75;;;12.59;55.85
64853;BME280;56050;55.558;-4.644;2022-11-15T04:53:02;99145.00;;;12.59;55.92
64853;BME280;56050;55.558;-4.644;2022-11-15T04:55:27;99136.13;;;12.58;55.83
64853;BME280;56050;55.558;-4.644;2022-11-15T04:58:00;99130.28;;;12.60;55.60
64853;BME280;56050;55.558;-4.644;2022-11-15T05:00:27;99111.38;;;12.60;55.82
64853;BME280;56050;55.558;-4.644;2022-11-15T05:02:53;99112.13;;;12.60;55.89
64853;BME280;56050;55.558;-4.644;2022-11-15T05:05:37;99119.06;;;12.61;55.72
64853;BME280;56050;55.558;-4.644;2022-11-15T05:08:03;99106.72;;;12.60;56.11
64853;BME280;56050;55.558;-4.644;2022-11-15T05:10:29;99095.94;;;12.60;55.96
64853;BME280;56050;55.558;-4.644;2022-11-15T05:12:54;99097.88;;;12.60;56.10
64853;BME280;56050;55.558;-4.644;2022-11-15T05:15:20;99087.50;;;12.58;56.29
64853;BME280;56050;55.558;-4.644;2022-11-15T05:17:45;99077.13;;;12.57;56.39
64853;BME280;56050;55.558;-4.644;2022-11-15T05:20:11;99078.03;;;12.54;56.61
64853;BME280;56050;55.558;-4.644;2022-11-15T05:22:37;99052.22;;;12.53;56.51
64853;BME280;56050;55.558;-4.644;2022-11-15T05:25:04;99067.66;;;12.52;56.90
64853;BME280;56050;55.558;-4.644;2022-11-15T05:27:29;99066.13;;;12.51;57.05
64853;BME280;56050;55.558;-4.644;2022-11-15T05:29:55;99068.09;;;12.51;57.24
64853;BME280;56050;55.558;-4.644;2022-11-15T05:32:20;99059.66;;;12.49;57.67
64853;BME280;56050;55.558;-4.644;2022-11-15T05:34:46;99053.97;;;12.47;57.87
64853;BME280;56050;55.558;-4.644;2022-11-15T05:37:13;99047.81;;;12.46;58.16
64853;BME280;56050;55.558;-4.644;2022-11-15T05:39:39;99048.56;;;12.47;58.40
64853;BME280;56050;55.558;-4.644;2022-11-15T05:42:15;99040.16;;;12.45;58.63
64853;BME280;56050;55.558;-4.644;2022-11-15T05:44:44;99045.25;;;12.43;59.00
64853;BME280;56050;55.558;-4.644;2022-11-15T05:47:17;99045.66;;;12.41;59.43
64853;BME280;56050;55.558;-4.644;2022-11-15T05:49:45;99045.34;;;12.39;59.60
64853;BME280;56050;55.558;-4.644;2022-11-15T05:52:16;99042.34;;;12.37;59.80
64853;BME280;56050;55.558;-4.644;2022-11-15T05:54:43;99053.16;;;12.37;60.37
64853;BME280;56050;55.558;-4.644;2022-11-15T05:57:09;99034.97;;;12.37;60.76
64853;BME280;56050;55.558;-4.644;2022-11-15T05:59:35;99047.75;;;12.37;61.02
64853;BME280;56050;55.558;-4.644;2022-11-15T06:02:00;99051.94;;;12.38;61.05
64853;BME280;56050;55.558;-4.644;2022-11-15T06:04:26;99040.84;;;12.36;61.66
64853;BME280;56050;55.558;-4.644;2022-11-15T06:06:52;99038.13;;;12.36;61.81
64853;BME280;56050;55.558;-4.644;2022-11-15T06:09:17;99041.59;;;12.36;61.96
64853;BME280;56050;55.558;-4.644;2022-11-15T06:11:43;99049.69;;;12.36;62.29
64853;BME280;56050;55.558;-4.644;2022-11-15T06:14:08;99047.75;;;12.37;62.37
64853;BME280;56050;55.558;-4.644;2022-11-15T06:16:33;99054.34;;;12.36;62.46
64853;BME280;56050;55.558;-4.644;2022-11-15T06:18:59;99049.69;;;12.36;62.80
64853;BME280;56050;55.558;-4.644;2022-11-15T06:21:24;99054.03;;;12.34;63.07
64853;BME280;56050;55.558;-4.644;2022-11-15T06:23:53;99039.56;;;12.28;63.55
64853;BME280;56050;55.558;-4.644;2022-11-15T06:26:19;99028.69;;;12.19;63.80
64853;BME280;56050;55.558;-4.644;2022-11-15T06:28:44;99040.47;;;12.12;64.14
64853;BME280;56050;55.558;-4.644;2022-11-15T06:31:10;99040.72;;;12.05;64.50
64853;BME280;56050;55.558;-4.644;2022-11-15T06:33:37;99030.50;;;12.00;64.97
64853;BME280;56050;55.558;-4.644;2022-11-15T06:36:05;99042.59;;;11.96;65.38
64853;BME280;56050;55.558;-4.644;2022-11-15T06:38:31;99031.91;;;11.92;65.38
64853;BME280;56050;55.558;-4.644;2022-11-15T06:41:04;99032.03;;;11.89;65.77
64853;BME280;56050;55.558;-4.644;2022-11-15T06:43:30;99024.03;;;11.85;65.92
64853;BME280;56050;55.558;-4.644;2022-11-15T06:45:58;99033.75;;;11.83;66.32
64853;BME280;56050;55.558;-4.644;2022-11-15T06:48:24;99030.75;;;11.81;66.84
64853;BME280;56050;55.558;-4.644;2022-11-15T06:50:53;99020.81;;;11.77;66.88
64853;BME280;56050;55.558;-4.644;2022-11-15T06:53:19;99020.06;;;11.77;67.22
64853;BME280;56050;55.558;-4.644;2022-11-15T06:55:45;99017.81;;;11.75;67.38
64853;BME280;56050;55.558;-4.644;2022-11-15T06:58:10;99012.41;;;11.75;67.37
64853;BME280;56050;55.558;-4.644;2022-11-15T07:00:36;99004.75;;;11.74;67.63
64853;BME280;56050;55.558;-4.644;2022-11-15T07:03:02;99016.75;;;11.73;67.78
64853;BME280;56050;55.558;-4.644;2022-11-15T07:05:28;99006.38;;;11.71;67.86
64853;BME280;56050;55.558;-4.644;2022-11-15T07:07:54;99015.66;;;11.70;68.18
64853;BME280;56050;55.558;-4.644;2022-11-15T07:10:21;99010.28;;;11.70;68.14
64853;BME280;56050;55.558;-4.644;2022-11-15T07:12:51;99005.31;;;11.69;68.25
64853;BME280;56050;55.558;-4.644;2022-11-15T07:15:17;98995.69;;;11.68;68.51
64853;BME280;56050;55.558;-4.644;2022-11-15T07:17:43;98996.88;;;11.67;68.53
64853;BME280;56050;55.558;-4.644;2022-11-15T07:20:09;98972.59;;;11.67;68.64
64853;BME280;56050;55.558;-4.644;2022-11-15T07:22:35;98986.50;;;11.65;68.72
64853;BME280;56050;55.558;-4.644;2022-11-15T07:25:01;98985.78;;;11.65;69.03
64853;BME280;56050;55.558;-4.644;2022-11-15T07:27:26;98983.50;;;11.63;69.14
64853;BME280;56050;55.558;-4.644;2022-11-15T07:29:52;98973.47;;;11.64;69.32
64853;BME280;56050;55.558;-4.644;2022-11-15T07:32:17;98983.50;;;11.63;69.42
64853;BME280;56050;55.558;-4.644;2022-11-15T07:34:42;98981.88;;;11.66;69.27
64853;BME280;56050;55.558;-4.644;2022-11-15T07:37:08;98983.38;;;11.67;69.47
64853;BME280;56050;55.558;-4.644;2022-11-15T07:39:34;98986.50;;;11.65;69.57
64853;BME280;56050;55.558;-4.644;2022-11-15T07:41:59;98994.94;;;11.67;69.62
64853;BME280;56050;55.558;-4.644;2022-11-15T07:44:43;98997.53;;;11.71;69.55
64853;BME280;56050;55.558;-4.644;2022-11-15T07:47:09;98989.00;;;11.72;69.77
64853;BME280;56050;55.558;-4.644;2022-11-15T07:49:34;98991.72;;;11.72;69.65
64853;BME280;56050;55.558;-4.644;2022-11-15T07:51:59;98985.44;;;11.75;69.67
64853;BME280;56050;55.558;-4.644;2022-11-15T07:54:25;98994.59;;;11.78;69.59
64853;BME280;56050;55.558;-4.644;2022-11-15T07:56:50;99003.78;;;11.81;69.56
64853;BME280;56050;55.558;-4.644;2022-11-15T07:59:16;98993.28;;;11.83;69.43
64853;BME280;56050;55.558;-4.644;2022-11-15T08:01:41;98993.63;;;11.85;69.47
64853;BME280;56050;55.558;-4.644;2022-11-15T08:04:07;98988.53;;;11.87;69.37
64853;BME280;56050;55.558;-4.644;2022-11-15T08:06:32;98985.72;;;11.90;69.41
64853;BME280;56050;55.558;-4.644;2022-11-15T08:08:57;98997.25;;;11.91;69.59
64853;BME280;56050;55.558;-4.644;2022-11-15T08:11:23;98992.19;;;11.93;69.57
64853;BME280;56050;55.558;-4.644;2022-11-15T08:13:48;98982.47;;;11.95;69.37
64853;BME280;56050;55.558;-4.644;2022-11-15T08:16:14;98982.47;;;11.95;69.53
64853;BME280;56050;55.558;-4.644;2022-11-15T08:18:39;98989.69;;;11.98;69.43
64853;BME280;56050;55.558;-4.644;2022-11-15T08:21:05;98988.50;;;11.99;69.34
64853;BME280;56050;55.558;-4.644;2022-11-15T08:23:30;98989.56;;;12.02;69.25
64853;BME280;56050;55.558;-4.644;2022-11-15T08:26:03;98993.78;;;12.03;69.32
64853;BME280;56050;55.558;-4.644;2022-11-15T08:28:30;99001.75;;;12.06;69.26
64853;BME280;56050;55.558;-4.644;2022-11-15T08:30:56;99003.59;;;12.09;69.36
64853;BME280;56050;55.558;-4.644;2022-11-15T08:33:21;99001.94;;;12.12;69.18
64853;BME280;56050;55.558;-4.644;2022-11-15T08:35:47;99008.41;;;12.14;69.18
64853;BME280;56050;55.558;-4.644;2022-11-15T08:38:14;98997.16;;;12.16;69.04
64853;BME280;56050;55.558;-4.644;2022-11-15T08:40:39;98992.53;;;12.16;69.14
64853;BME280;56050;55.558;-4.644;2022-11-15T08:43:05;98987.88;;;12.17;69.03
64853;BME280;56050;55.558;-4.644;2022-11-15T08:45:31;98981.28;;;12.18;69.07
64853;BME280;56050;55.558;-4.644;2022-11-15T08:48:02;98983.56;;;12.19;68.77
64853;BME280;56050;55.558;-4.644;2022-11-15T08:50:28;98969.59;;;12.21;68.94
64853;BME280;56050;55.558;-4.644;2022-11-15T08:52:54;98966.91;;;12.21;68.98
64853;BME280;56050;55.558;-4.644;2022-11-15T08:55:19;98978.78;;;12.23;68.78
64853;BME280;56050;55.558;-4.644;2022-11-15T08:57:45;98977.16;;;12.26;68.71
64853;BME280;56050;55.558;-4.644;2022-11-15T09:00:11;98975.19;;;12.26;68.78
64853;BME280;56050;55.558;-4.644;2022-11-15T09:02:38;98975.19;;;12.26;68.73
64853;BME280;56050;55.558;-4.644;2022-11-15T09:05:04;98970.13;;;12.28;68.77
64853;BME280;56050;55.558;-4.644;2022-11-15T09:07:30;98977.34;;;12.31;68.61
64853;BME280;56050;55.558;-4.644;2022-11-15T09:09:57;98969.97;;;12.32;68.57
64853;BME280;56050;55.558;-4.644;2022-11-15T09:12:22;98970.31;;;12.34;68.63
64853;BME280;56050;55.558;-4.644;2022-11-15T09:14:48;98963.69;;;12.35;68.58
64853;BME280;56050;55.558;-4.644;2022-11-15T09:17:13;98968.69;;;12.36;68.79
64853;BME280;56050;55.558;-4.644;2022-11-15T09:19:38;98968.22;;;12.38;68.57
64853;BME280;56050;55.558;-4.644;2022-11-15T09:22:07;98956.25;;;12.39;68.51
64853;BME280;56050;55.558;-4.644;2022-11-15T09:24:34;98953.09;;;12.41;68.42
64853;BME280;56050;55.558;-4.644;2022-11-15T09:26:59;98950.84;;;12.39;68.44
64853;BME280;56050;55.558;-4.644;2022-11-15T09:29:25;98950.84;;;12.39;68.49
64853;BME280;56050;55.558;-4.644;2022-11-15T09:31:53;98957.13;;;12.36;68.68
64853;BME280;56050;55.558;-4.644;2022-11-15T09:34:19;98946.75;;;12.34;68.57
64853;BME280;56050;55.558;-4.644;2022-11-15T09:36:46;98953.78;;;12.32;68.55
64853;BME280;56050;55.558;-4.644;2022-11-15T09:39:11;98960.69;;;12.33;68.46
64853;BME280;56050;55.558;-4.644;2022-11-15T09:41:49;98944.94;;;12.31;68.54
64853;BME280;56050;55.558;-4.644;2022-11-15T09:47:10;98961.56;;;12.30;68.68
64853;BME280;56050;55.558;-4.644;2022-11-15T09:49:35;98951.22;;;12.28;68.85
64853;BME280;56050;55.558;-4.644;2022-11-15T09:52:01;98940.84;;;12.27;68.72
64853;BME280;56050;55.558;-4.644;2022-11-15T09:54:35;98944.00;;;12.25;68.97
64853;BME280;56050;55.558;-4.644;2022-11-15T10:04:38;98941.63;;;12.27;69.04
64853;BME280;56050;55.558;-4.644;2022-11-15T10:07:19;98942.38;;;12.28;69.34
64853;BME280;56050;55.558;-4.644;2022-11-15T10:12:44;98939.22;;;12.29;69.21
64853;BME280;56050;55.558;-4.644;2022-11-15T10:15:15;98939.56;;;12.31;69.15
64853;BME280;56050;55.558;-4.644;2022-11-15T10:20:20;98938.66;;;12.34;69.16
64853;BME280;56050;55.558;-4.644;2022-11-15T10:22:54;98934.00;;;12.35;69.18
64853;BME280;56050;55.558;-4.644;2022-11-15T10:25:31;98934.00;;;12.35;69.09
64853;BME280;56050;55.558;-4.644;2022-11-15T10:28:20;98929.66;;;12.37;69.24
64853;BME280;56050;55.558;-4.644;2022-11-15T10:30:52;98931.38;;;12.44;68.94
64853;BME280;56050;55.558;-4.644;2022-11-15T10:41:17;98911.97;;;12.67;68.76
64853;BME280;56050;55.558;-4.644;2022-11-15T10:43:43;98898.03;;;12.69;68.63
64853;BME280;56050;55.558;-4.644;2022-11-15T10:46:23;98872.34;;;12.64;68.74
64853;BME280;56050;55.558;-4.644;2022-11-15T10:48:49;98853.38;;;12.55;68.75
64853;BME280;56050;55.558;-4.644;2022-11-15T10:51:27;98842.69;;;12.43;69.24
64853;BME280;56050;55.558;-4.644;2022-11-15T10:53:57;98816.06;;;12.32;69.53
64853;BME280;56050;55.558;-4.644;2022-11-15T10:56:26;98812.16;;;12.24;69.86
64853;BME280;56050;55.558;-4.644;2022-11-15T10:58:56;98786.19;;;12.17;69.92
64853;BME280;56050;55.558;-4.644;2022-11-15T11:01:24;98778.97;;;12.14;70.02
64853;BME280;56050;55.558;-4.644;2022-11-15T11:04:04;98777.59;;;12.10;70.05
64853;BME280;56050;55.558;-4.644;2022-11-15T11:06:54;98779.56;;;12.09;70.14
64853;BME280;56050;55.558;-4.644;2022-11-15T11:09:33;98778.94;;;12.05;70.30
64853;BME280;56050;55.558;-4.644;2022-11-15T11:12:00;98775.94;;;12.03;70.40
64853;BME280;56050;55.558;-4.644;2022-11-15T11:14:26;98816.09;;;12.01;70.47
64853;BME280;56050;55.558;-4.644;2022-11-15T11:22:32;98771.41;;;12.00;70.85
64853;BME280;56050;55.558;-4.644;2022-11-15T11:33:18;98787.16;;;12.02;71.00
64853;BME280;56050;55.558;-4.644;2022-11-15T11:46:53;98813.03;;;12.21;70.76
64853;BME280;56050;55.558;-4.644;2022-11-15T11:49:25;98810.50;;;12.26;70.56
64853;BME280;56050;55.558;-4.644;2022-11-15T11:51:56;98806.91;;;12.29;70.32
64853;BME280;56050;55.558;-4.644;2022-11-15T11:54:38;98807.25;;;12.31;70.54
64853;BME280;56050;55.558;-4.644;2022-11-15T11:57:17;98812.50;;;12.35;70.45
64853;BME280;56050;55.558;-4.644;2022-11-15T11:59:58;98815.06;;;12.38;70.44
64853;BME280;56050;55.558;-4.644;2022-11-15T12:05:05;98801.28;;;12.46;70.31
64853;BME280;56050;55.558;-4.644;2022-11-15T12:07:34;98794.56;;;12.50;70.35
64853;BME280;56050;55.558;-4.644;2022-11-15T12:10:24;98786.63;;;12.56;70.23
64853;BME280;56050;55.558;-4.644;2022-11-15T12:13:00;98791.91;;;12.59;70.13
64853;BME280;56050;55.558;-4.644;2022-11-15T12:15:35;98789.19;;;12.59;70.20
64853;BME280;56050;55.558;-4.644;2022-11-15T12:18:02;98787.97;;;12.60;70.13
64853;BME280;56050;55.558;-4.644;2022-11-15T12:20:32;98791.72;;;12.63;70.14
64853;BME280;56050;55.558;-4.644;2022-11-15T12:25:51;98776.56;;;12.65;70.04
64853;BME280;56050;55.558;-4.644;2022-11-15T12:28:49;98779.59;;;12.67;70.01
64853;BME280;56050;55.558;-4.644;2022-11-15T12:31:36;98779.44;;;12.71;69.92
64853;BME280;56050;55.558;-4.644;2022-11-15T12:36:43;98783.53;;;12.75;69.75
64853;BME280;56050;55.558;-4.644;2022-11-15T12:39:13;98792.34;;;12.76;69.82
64853;BME280;56050;55.558;-4.644;2022-11-15T12:41:41;98788.16;;;12.75;69.82
64853;BME280;56050;55.558;-4.644;2022-11-15T12:44:12;98783.53;;;12.75;69.78
64853;BME280;56050;55.558;-4.644;2022-11-15T13:02:33;98740.72;;;12.56;70.10
64853;BME280;56050;55.558;-4.644;2022-11-15T13:17:56;98709.78;;;12.48;70.17
64853;BME280;56050;55.558;-4.644;2022-11-15T13:20:23;98715.94;;;12.48;70.06
64853;BME280;56050;55.558;-4.644;2022-11-15T13:23:12;98722.97;;;12.46;70.29
64853;BME280;56050;55.558;-4.644;2022-11-15T13:33:48;98734.81;;;12.39;70.40
64853;BME280;56050;55.558;-4.644;2022-11-15T13:36:27;98747.25;;;12.36;70.35
64853;BME280;56050;55.558;-4.644;2022-11-15T13:41:32;98724.16;;;12.35;70.43
64853;BME280;56050;55.558;-4.644;2022-11-15T13:43:59;98716.81;;;12.36;70.52
64853;BME280;56050;55.558;-4.644;2022-11-15T13:46:27;98719.03;;;12.37;70.53
64853;BME280;56050;55.558;-4.644;2022-11-15T13:49:01;98703.16;;;12.40;70.34
64853;BME280;56050;55.558;-4.644;2022-11-15T13:54:24;98683.66;;;12.45;70.34
64853;BME280;56050;55.558;-4.644;2022-11-15T13:56:52;98668.81;;;12.49;70.29
64853;BME280;56050;55.558;-4.644;2022-11-15T14:01:54;98670.47;;;12.56;70.05
64853;BME280;56050;55.558;-4.644;2022-11-15T14:04:22;98680.81;;;12.57;70.12
64853;BME280;56050;55.558;-4.644;2022-11-15T14:06:56;98683.09;;;12.59;70.24
64853;BME280;56050;55.558;-4.644;2022-11-15T14:09:31;98689.53;;;12.61;70.28
64853;BME280;56050;55.558;-4.644;2022-11-15T14:11:59;98706.81;;;12.64;70.08
64853;BME280;56050;55.558;-4.644;2022-11-15T14:14:28;98715.19;;;12.66;70.19
64853;BME280;56050;55.558;-4.644;2022-11-15T14:16:56;98715.97;;;12.66;70.21
64853;BME280;56050;55.558;-4.644;2022-11-15T14:22:10;98693.16;;;12.67;70.12
64853;BME280;56050;55.558;-4.644;2022-11-15T14:24:36;98681.13;;;12.68;70.04
64853;BME280;56050;55.558;-4.644;2022-11-15T14:27:24;98688.03;;;12.69;70.10
64853;BME280;56050;55.558;-4.644;2022-11-15T14:29:50;98692.84;;;12.74;70.07
64853;BME280;56050;55.558;-4.644;2022-11-15T14:32:24;98684.00;;;12.74;70.19
64853;BME280;56050;55.558;-4.644;2022-11-15T14:35:00;98690.16;;;12.74;70.17
64853;BME280;56050;55.558;-4.644;2022-11-15T14:37:30;98694.66;;;12.77;70.16
64853;BME280;56050;55.558;-4.644;2022-11-15T14:40:01;98704.56;;;12.80;70.30
64853;BME280;56050;55.558;-4.644;2022-11-15T14:42:27;98710.88;;;12.77;70.37
64853;BME280;56050;55.558;-4.644;2022-11-15T14:44:52;98709.34;;;12.58;70.39
64853;BME280;56050;55.558;-4.644;2022-11-15T14:47:18;98717.06;;;12.29;70.74
64853;BME280;56050;55.558;-4.644;2022-11-15T14:49:44;98716.25;;;12.01;71.33
64853;BME280;56050;55.558;-4.644;2022-11-15T14:52:28;98710.41;;;11.72;72.27
64853;BME280;56050;55.558;-4.644;2022-11-15T14:54:54;98708.78;;;11.53;72.70
64853;BME280;56050;55.558;-4.644;2022-11-15T14:57:20;98696.28;;;11.37;73.33
64853;BME280;56050;55.558;-4.644;2022-11-15T14:59:45;98696.78;;;11.23;73.93
64853;BME280;56050;55.558;-4.644;2022-11-15T15:02:31;98692.94;;;11.11;74.49
64853;BME280;56050;55.558;-4.644;2022-11-15T15:04:57;98682.09;;;11.02;74.60
64853;BME280;56050;55.558;-4.644;2022-11-15T15:07:26;98693.56;;;10.94;74.68
64853;BME280;56050;55.558;-4.644;2022-11-15T15:09:51;98691.88;;;10.87;75.05
64853;BME280;56050;55.558;-4.644;2022-11-15T15:12:20;98685.53;;;10.81;75.26
64853;BME280;56050;55.558;-4.644;2022-11-15T15:14:48;98680.28;;;10.78;75.40